sensor_id;sensor_type;location;lat;lon;timestamp;temperature;humidity
45765;DHT22;31474;45.332;10.230;2023-01-31T00:00:54;3.30;99.90
45765;DHT22;31474;45.332;10.230;2023-01-31T00:03:20;3.40;99.90
45765;DHT22;31474;45.332;10.230;2023-01-31T00:05:45;3.30;99.90
45765;DHT22;31474;45.332;10.230;2023-01-31T00:08:11;3.30;99.90
45765;DHT22;31474;45.332;10.230;2023-01-31T00:10:38;3.30;99.90
45765;DHT22;31474;45.332;10.230;2023-01-31T00:13:04;3.30;99.90
45765;DHT22;31474;45.332;10.230;2023-01-31T00:15:30;3.20;99.90
45765;DHT22;31474;45.332;10.230;2023-01-31T00:17:55;3.30;99.90
45765;DHT22;31474;45.332;10.230;2023-01-31T00:20:21;3.30;99.90
45765;DHT22;31474;45.332;10.230;2023-01-31T00:22:47;3.20;99.90
45765;DHT22;31474;45.332;10.230;2023-01-31T00:25:12;3.10;99.90
45765;DHT22;31474;45.332;10.230;2023-01-31T00:27:38;3.10;99.90
45765;DHT22;31474;45.332;10.230;2023-01-31T00:30:04;3.20;99.90
45765;DHT22;31474;45.332;10.230;2023-01-31T00:32:30;3.20;99.90
45765;DHT22;31474;45.332;10.230;2023-01-31T00:34:55;3.20;99.90
45765;DHT22;31474;45.332;10.230;2023-01-31T00:37:21;3.20;99.90
45765;DHT22;31474;45.332;10.230;2023-01-31T00:39:47;3.30;99.90
45765;DHT22;31474;45.332;10.230;2023-01-31T00:42:12;3.30;99.90
45765;DHT22;31474;45.332;10.230;2023-01-31T00:44:38;3.30;99.90
45765;DHT22;31474;45.332;10.230;2023-01-31T00:47:04;3.30;99.90
45765;DHT22;31474;45.332;10.230;2023-01-31T00:49:30;3.30;99.90
45765;DHT22;31474;45.332;10.230;2023-01-31T00:51:55;3.20;99.90
45765;DHT22;31474;45.332;10.230;2023-01-31T00:54:22;3.10;99.90
45765;DHT22;31474;45.332;10.230;2023-01-31T00:56:48;3.00;99.90
45765;DHT22;31474;45.332;10.230;2023-01-31T00:59:14;3.00;99.90
45765;DHT22;31474;45.332;10.230;2023-01-31T01:01:40;3.00;99.90
45765;DHT22;31474;45.332;10.230;2023-01-31T01:04:06;2.90;99.90
45765;DHT22;31474;45.332;10.230;2023-01-31T01:06:32;2.90;99.90
45765;DHT22;31474;45.332;10.230;2023-01-31T01:08:58;2.90;99.90
45765;DHT22;31474;45.332;10.230;2023-01-31T01:11:27;2.90;99.90
45765;DHT22;31474;45.332;10.230;2023-01-31T01:13:53;2.80;99.90
45765;DHT22;31474;45.332;10.230;2023-01-31T01:16:41;2.90;99.90
45765;DHT22;31474;45.332;10.230;2023-01-31T01:19:12;3.00;99.90
45765;DHT22;31474;45.332;10.230;2023-01-31T01:21:39;3.10;99.90
45765;DHT22;31474;45.332;10.230;2023-01-31T01:24:10;3.10;99.90
45765;DHT22;31474;45.332;10.230;2023-01-31T01:26:36;3.10;99.90
45765;DHT22;31474;45.332;10.230;2023-01-31T01:29:02;3.10;99.90
45765;DHT22;31474;45.332;10.230;2023-01-31T01:31:29;3.10;99.90
45765;DHT22;31474;45.332;10.230;2023-01-31T01:33:57;3.10;99.90
45765;DHT22;31474;45.332;10.230;2023-01-31T01:36:23;3.10;99.90
45765;DHT22;31474;45.332;10.230;2023-01-31T01:38:50;2.90;99.90
45765;DHT22;31474;45.332;10.230;2023-01-31T01:41:17;2.90;99.90
45765;DHT22;31474;45.332;10.230;2023-01-31T01:43:47;3.00;99.90
45765;DHT22;31474;45.332;10.230;2023-01-31T01:51:30;3.10;99.90
45765;DHT22;31474;45.332;10.230;2023-01-31T01:53:59;3.20;99.90
45765;DHT22;31474;45.332;10.230;2023-01-31T01:56:34;3.10;99.90
45765;DHT22;31474;45.332;10.230;2023-01-31T01:59:03;3.10;99.90
45765;DHT22;31474;45.332;10.230;2023-01-31T02:01:34;3.10;99.90
45765;DHT22;31474;45.332;10.230;2023-01-31T02:04:02;3.10;99.90
45765;DHT22;31474;45.332;10.230;2023-01-31T02:06:28;3.00;99.90
45765;DHT22;31474;45.332;10.230;2023-01-31T02:08:54;3.00;99.90
45765;DHT22;31474;45.332;10.230;2023-01-31T02:13:51;3.10;99.90
45765;DHT22;31474;45.332;10.230;2023-01-31T02:16:18;3.00;99.90
45765;DHT22;31474;45.332;10.230;2023-01-31T02:18:44;2.90;99.90
45765;DHT22;31474;45.332;10.230;2023-01-31T02:22:03;2.90;99.90
45765;DHT22;31474;45.332;10.230;2023-01-31T02:32:46;2.70;99.90
45765;DHT22;31474;45.332;10.230;2023-01-31T02:35:32;2.60;99.90
45765;DHT22;31474;45.332;10.230;2023-01-31T02:40:57;2.60;99.90
45765;DHT22;31474;45.332;10.230;2023-01-31T02:46:59;2.60;99.90
45765;DHT22;31474;45.332;10.230;2023-01-31T02:49:47;2.60;99.90
45765;DHT22;31474;45.332;10.230;2023-01-31T02:55:17;2.50;99.90
45765;DHT22;31474;45.332;10.230;2023-01-31T02:58:06;2.60;99.90
45765;DHT22;31474;45.332;10.230;2023-01-31T03:00:33;2.60;99.90
45765;DHT22;31474;45.332;10.230;2023-01-31T03:03:03;2.60;99.90
45765;DHT22;31474;45.332;10.230;2023-01-31T03:05:29;2.60;99.90
45765;DHT22;31474;45.332;10.230;2023-01-31T03:07:57;2.60;99.90
45765;DHT22;31474;45.332;10.230;2023-01-31T03:18:43;2.70;99.90
45765;DHT22;31474;45.332;10.230;2023-01-31T03:21:25;2.60;99.90
45765;DHT22;31474;45.332;10.230;2023-01-31T03:23:54;2.70;99.90
45765;DHT22;31474;45.332;10.230;2023-01-31T03:26:21;2.70;99.90
45765;DHT22;31474;45.332;10.230;2023-01-31T03:28:48;2.60;99.90
45765;DHT22;31474;45.332;10.230;2023-01-31T03:31:28;2.60;99.90
45765;DHT22;31474;45.332;10.230;2023-01-31T03:34:03;2.60;99.90
45765;DHT22;31474;45.332;10.230;2023-01-31T03:36:40;2.60;99.90
45765;DHT22;31474;45.332;10.230;2023-01-31T03:47:38;2.60;99.90
45765;DHT22;31474;45.332;10.230;2023-01-31T03:50:09;2.50;99.90
45765;DHT22;31474;45.332;10.230;2023-01-31T03:52:45;2.50;99.90
45765;DHT22;31474;45.332;10.230;2023-01-31T03:55:19;2.50;99.90
45765;DHT22;31474;45.332;10.230;2023-01-31T03:57:51;2.50;99.90
45765;DHT22;31474;45.332;10.230;2023-01-31T04:00:18;2.50;99.90
45765;DHT22;31474;45.332;10.230;2023-01-31T04:02:47;2.50;99.90
45765;DHT22;31474;45.332;10.230;2023-01-31T04:05:19;2.40;99.90
45765;DHT22;31474;45.332;10.230;2023-01-31T04:07:45;2.50;99.90
45765;DHT22;31474;45.332;10.230;2023-01-31T04:10:18;2.50;99.90
45765;DHT22;31474;45.332;10.230;2023-01-31T04:12:44;2.50;99.90
45765;DHT22;31474;45.332;10.230;2023-01-31T04:15:11;2.50;99.90
45765;DHT22;31474;45.332;10.230;2023-01-31T04:17:37;2.50;99.90
45765;DHT22;31474;45.332;10.230;2023-01-31T04:20:04;2.50;99.90
45765;DHT22;31474;45.332;10.230;2023-01-31T04:22:30;2.40;99.90
45765;DHT22;31474;45.332;10.230;2023-01-31T04:24:56;2.30;99.90
45765;DHT22;31474;45.332;10.230;2023-01-31T04:27:22;2.30;99.90
45765;DHT22;31474;45.332;10.230;2023-01-31T04:29:47;2.30;99.90
45765;DHT22;31474;45.332;10.230;2023-01-31T04:32:13;2.20;99.90
45765;DHT22;31474;45.332;10.230;2023-01-31T04:34:39;2.10;99.90
45765;DHT22;31474;45.332;10.230;2023-01-31T04:37:04;2.10;99.90
45765;DHT22;31474;45.332;10.230;2023-01-31T04:39:30;2.10;99.90
45765;DHT22;31474;45.332;10.230;2023-01-31T04:41:55;2.10;99.90
45765;DHT22;31474;45.332;10.230;2023-01-31T04:44:21;2.10;99.90
45765;DHT22;31474;45.332;10.230;2023-01-31T04:46:47;2.10;99.90
45765;DHT22;31474;45.332;10.230;2023-01-31T04:49:13;2.10;99.90
45765;DHT22;31474;45.332;10.230;2023-01-31T04:51:39;2.10;99.90
45765;DHT22;31474;45.332;10.230;2023-01-31T04:54:05;2.20;99.90
45765;DHT22;31474;45.332;10.230;2023-01-31T04:56:31;2.20;99.90
45765;DHT22;31474;45.332;10.230;2023-01-31T04:58:57;2.20;99.90
45765;DHT22;31474;45.332;10.230;2023-01-31T05:01:23;2.20;99.90
45765;DHT22;31474;45.332;10.230;2023-01-31T05:03:48;2.20;99.90
45765;DHT22;31474;45.332;10.230;2023-01-31T05:06:14;2.20;99.90
45765;DHT22;31474;45.332;10.230;2023-01-31T05:08:40;2.20;99.90
45765;DHT22;31474;45.332;10.230;2023-01-31T05:11:05;2.30;99.90
45765;DHT22;31474;45.332;10.230;2023-01-31T05:13:32;2.20;99.90
45765;DHT22;31474;45.332;10.230;2023-01-31T05:15:58;2.30;99.90
45765;DHT22;31474;45.332;10.230;2023-01-31T05:18:24;2.20;99.90
45765;DHT22;31474;45.332;10.230;2023-01-31T05:20:50;2.20;99.90
45765;DHT22;31474;45.332;10.230;2023-01-31T05:23:17;2.10;99.90
45765;DHT22;31474;45.332;10.230;2023-01-31T05:25:43;2.00;99.90
45765;DHT22;31474;45.332;10.230;2023-01-31T05:28:09;2.10;99.90
45765;DHT22;31474;45.332;10.230;2023-01-31T05:30:35;2.10;99.90
45765;DHT22;31474;45.332;10.230;2023-01-31T05:33:01;2.00;99.90
45765;DHT22;31474;45.332;10.230;2023-01-31T05:35:27;2.10;99.90
45765;DHT22;31474;45.332;10.230;2023-01-31T05:37:53;2.00;99.90
45765;DHT22;31474;45.332;10.230;2023-01-31T05:40:19;2.10;99.90
45765;DHT22;31474;45.332;10.230;2023-01-31T05:42:46;2.10;99.90
45765;DHT22;31474;45.332;10.230;2023-01-31T05:45:14;2.10;99.90
45765;DHT22;31474;45.332;10.230;2023-01-31T05:47:40;2.10;99.90
45765;DHT22;31474;45.332;10.230;2023-01-31T05:50:07;2.20;99.90
45765;DHT22;31474;45.332;10.230;2023-01-31T05:52:32;2.10;99.90
45765;DHT22;31474;45.332;10.230;2023-01-31T05:54:58;2.10;99.90
45765;DHT22;31474;45.332;10.230;2023-01-31T05:57:24;2.10;99.90
45765;DHT22;31474;45.332;10.230;2023-01-31T05:59:49;2.10;99.90
45765;DHT22;31474;45.332;10.230;2023-01-31T06:02:15;2.10;99.90
45765;DHT22;31474;45.332;10.230;2023-01-31T06:04:40;2.00;99.90
45765;DHT22;31474;45.332;10.230;2023-01-31T06:07:06;2.10;99.90
45765;DHT22;31474;45.332;10.230;2023-01-31T06:09:32;2.00;99.90
45765;DHT22;31474;45.332;10.230;2023-01-31T06:11:57;2.00;99.90
45765;DHT22;31474;45.332;10.230;2023-01-31T06:14:23;1.90;99.90
45765;DHT22;31474;45.332;10.230;2023-01-31T06:16:49;1.90;99.90
45765;DHT22;31474;45.332;10.230;2023-01-31T06:19:14;1.90;99.90
45765;DHT22;31474;45.332;10.230;2023-01-31T06:21:40;1.90;99.90
45765;DHT22;31474;45.332;10.230;2023-01-31T06:24:06;1.90;99.90
45765;DHT22;31474;45.332;10.230;2023-01-31T06:26:32;2.00;99.90
45765;DHT22;31474;45.332;10.230;2023-01-31T06:28:58;2.00;99.90
45765;DHT22;31474;45.332;10.230;2023-01-31T06:31:24;2.00;99.90
45765;DHT22;31474;45.332;10.230;2023-01-31T06:33:50;2.00;99.90
45765;DHT22;31474;45.332;10.230;2023-01-31T06:36:15;2.00;99.90
45765;DHT22;31474;45.332;10.230;2023-01-31T06:38:41;2.00;99.90
45765;DHT22;31474;45.332;10.230;2023-01-31T06:41:07;2.00;99.90
45765;DHT22;31474;45.332;10.230;2023-01-31T06:43:32;2.00;99.90
45765;DHT22;31474;45.332;10.230;2023-01-31T06:45:58;2.00;99.90
45765;DHT22;31474;45.332;10.230;2023-01-31T06:48:23;2.00;99.90
45765;DHT22;31474;45.332;10.230;2023-01-31T06:50:49;2.00;99.90
45765;DHT22;31474;45.332;10.230;2023-01-31T06:53:15;2.10;99.90
45765;DHT22;31474;45.332;10.230;2023-01-31T06:55:41;2.10;99.90
45765;DHT22;31474;45.332;10.230;2023-01-31T06:58:06;2.00;99.90
45765;DHT22;31474;45.332;10.230;2023-01-31T07:00:32;2.10;99.90
45765;DHT22;31474;45.332;10.230;2023-01-31T07:02:57;2.00;99.90
45765;DHT22;31474;45.332;10.230;2023-01-31T07:05:23;2.00;99.90
45765;DHT22;31474;45.332;10.230;2023-01-31T07:07:49;2.00;99.90
45765;DHT22;31474;45.332;10.230;2023-01-31T07:10:16;2.00;99.90
45765;DHT22;31474;45.332;10.230;2023-01-31T07:12:42;2.00;99.90
45765;DHT22;31474;45.332;10.230;2023-01-31T07:15:09;2.00;99.90
45765;DHT22;31474;45.332;10.230;2023-01-31T07:17:35;2.10;99.90
45765;DHT22;31474;45.332;10.230;2023-01-31T07:20:01;2.20;99.90
45765;DHT22;31474;45.332;10.230;2023-01-31T07:22:26;2.30;99.90
45765;DHT22;31474;45.332;10.230;2023-01-31T07:24:52;2.40;99.90
45765;DHT22;31474;45.332;10.230;2023-01-31T07:27:18;2.50;99.90
45765;DHT22;31474;45.332;10.230;2023-01-31T07:29:43;2.60;99.90
45765;DHT22;31474;45.332;10.230;2023-01-31T07:32:09;2.70;99.90
45765;DHT22;31474;45.332;10.230;2023-01-31T07:34:35;2.80;99.90
45765;DHT22;31474;45.332;10.230;2023-01-31T07:37:01;2.80;99.90
45765;DHT22;31474;45.332;10.230;2023-01-31T07:39:27;2.90;99.90
45765;DHT22;31474;45.332;10.230;2023-01-31T07:41:54;3.00;99.90
45765;DHT22;31474;45.332;10.230;2023-01-31T07:44:20;3.10;99.90
45765;DHT22;31474;45.332;10.230;2023-01-31T07:46:45;3.30;99.90
45765;DHT22;31474;45.332;10.230;2023-01-31T07:49:11;3.40;99.90
45765;DHT22;31474;45.332;10.230;2023-01-31T07:51:37;3.60;99.90
45765;DHT22;31474;45.332;10.230;2023-01-31T07:54:04;3.70;99.90
45765;DHT22;31474;45.332;10.230;2023-01-31T07:56:30;3.80;99.90
45765;DHT22;31474;45.332;10.230;2023-01-31T07:58:55;3.90;99.90
45765;DHT22;31474;45.332;10.230;2023-01-31T08:01:24;4.00;99.90
45765;DHT22;31474;45.332;10.230;2023-01-31T08:04:11;4.20;99.90
45765;DHT22;31474;45.332;10.230;2023-01-31T08:06:38;4.30;99.90
45765;DHT22;31474;45.332;10.230;2023-01-31T08:09:04;4.50;99.90
45765;DHT22;31474;45.332;10.230;2023-01-31T08:11:30;4.60;99.90
45765;DHT22;31474;45.332;10.230;2023-01-31T08:13:56;4.70;99.90
45765;DHT22;31474;45.332;10.230;2023-01-31T08:16:22;4.70;99.90
45765;DHT22;31474;45.332;10.230;2023-01-31T08:18:48;4.80;99.90
45765;DHT22;31474;45.332;10.230;2023-01-31T08:21:15;4.90;99.90
45765;DHT22;31474;45.332;10.230;2023-01-31T08:23:41;5.10;99.90
45765;DHT22;31474;45.332;10.230;2023-01-31T08:26:15;5.10;99.90
45765;DHT22;31474;45.332;10.230;2023-01-31T08:28:42;5.10;99.90
45765;DHT22;31474;45.332;10.230;2023-01-31T08:31:34;5.20;99.90
45765;DHT22;31474;45.332;10.230;2023-01-31T08:34:00;5.30;99.90
45765;DHT22;31474;45.332;10.230;2023-01-31T08:36:27;5.50;99.90
45765;DHT22;31474;45.332;10.230;2023-01-31T08:38:56;5.60;99.90
45765;DHT22;31474;45.332;10.230;2023-01-31T08:41:24;5.60;99.90
45765;DHT22;31474;45.332;10.230;2023-01-31T08:43:50;5.50;99.90
45765;DHT22;31474;45.332;10.230;2023-01-31T08:46:16;5.60;99.90
45765;DHT22;31474;45.332;10.230;2023-01-31T08:48:42;5.80;99.90
45765;DHT22;31474;45.332;10.230;2023-01-31T08:51:09;6.00;99.90
45765;DHT22;31474;45.332;10.230;2023-01-31T08:53:40;6.10;99.90
45765;DHT22;31474;45.332;10.230;2023-01-31T08:56:08;6.10;99.90
45765;DHT22;31474;45.332;10.230;2023-01-31T08:58:35;6.10;99.90
45765;DHT22;31474;45.332;10.230;2023-01-31T09:01:15;6.30;99.90
45765;DHT22;31474;45.332;10.230;2023-01-31T09:03:41;6.50;99.90
45765;DHT22;31474;45.332;10.230;2023-01-31T09:06:10;6.70;99.90
45765;DHT22;31474;45.332;10.230;2023-01-31T09:08:37;6.70;99.90
45765;DHT22;31474;45.332;10.230;2023-01-31T09:11:03;6.80;99.90
45765;DHT22;31474;45.332;10.230;2023-01-31T09:13:29;6.90;99.90
45765;DHT22;31474;45.332;10.230;2023-01-31T09:16:00;7.00;99.90
45765;DHT22;31474;45.332;10.230;2023-01-31T09:18:26;7.10;99.90
45765;DHT22;31474;45.332;10.230;2023-01-31T09:20:52;7.20;99.90
45765;DHT22;31474;45.332;10.230;2023-01-31T09:23:18;7.20;99.90
45765;DHT22;31474;45.332;10.230;2023-01-31T09:25:51;7.30;99.90
45765;DHT22;31474;45.332;10.230;2023-01-31T09:28:16;7.30;99.90
45765;DHT22;31474;45.332;10.230;2023-01-31T09:30:42;7.40;99.90
45765;DHT22;31474;45.332;10.230;2023-01-31T09:33:08;7.60;99.90
45765;DHT22;31474;45.332;10.230;2023-01-31T09:35:33;7.70;99.90
45765;DHT22;31474;45.332;10.230;2023-01-31T09:37:59;7.80;99.90
45765;DHT22;31474;45.332;10.230;2023-01-31T09:40:25;7.90;99.90
45765;DHT22;31474;45.332;10.230;2023-01-31T09:42:54;8.00;99.90
45765;DHT22;31474;45.332;10.230;2023-01-31T09:45:31;8.10;99.90
45765;DHT22;31474;45.332;10.230;2023-01-31T09:47:59;8.20;99.90
45765;DHT22;31474;45.332;10.230;2023-01-31T09:50:35;8.20;99.90
45765;DHT22;31474;45.332;10.230;2023-01-31T09:53:04;8.30;99.90
45765;DHT22;31474;45.332;10.230;2023-01-31T10:00:46;8.60;99.90
45765;DHT22;31474;45.332;10.230;2023-01-31T10:05:59;8.70;99.90
45765;DHT22;31474;45.332;10.230;2023-01-31T10:08:43;8.70;99.90
45765;DHT22;31474;45.332;10.230;2023-01-31T10:11:28;8.80;99.90
45765;DHT22;31474;45.332;10.230;2023-01-31T10:19:21;8.90;99.90
45765;DHT22;31474;45.332;10.230;2023-01-31T10:21:53;9.00;99.90
45765;DHT22;31474;45.332;10.230;2023-01-31T10:24:31;9.00;99.90
45765;DHT22;31474;45.332;10.230;2023-01-31T10:27:06;9.00;99.90
45765;DHT22;31474;45.332;10.230;2023-01-31T10:29:38;9.10;99.90
45765;DHT22;31474;45.332;10.230;2023-01-31T10:32:11;9.10;99.90
45765;DHT22;31474;45.332;10.230;2023-01-31T10:37:47;9.00;99.90
45765;DHT22;31474;45.332;10.230;2023-01-31T10:42:58;9.00;99.90
45765;DHT22;31474;45.332;10.230;2023-01-31T10:45:26;9.10;99.90
45765;DHT22;31474;45.332;10.230;2023-01-31T10:54:19;9.40;99.90
45765;DHT22;31474;45.332;10.230;2023-01-31T10:56:47;9.50;99.90
45765;DHT22;31474;45.332;10.230;2023-01-31T11:01:45;9.40;99.90
45765;DHT22;31474;45.332;10.230;2023-01-31T11:04:31;9.40;99.90
45765;DHT22;31474;45.332;10.230;2023-01-31T11:07:00;9.50;99.90
45765;DHT22;31474;45.332;10.230;2023-01-31T11:09:29;9.50;99.90
45765;DHT22;31474;45.332;10.230;2023-01-31T11:11:59;9.60;99.90
45765;DHT22;31474;45.332;10.230;2023-01-31T11:14:25;9.60;99.90
45765;DHT22;31474;45.332;10.230;2023-01-31T11:16:57;9.60;99.90
45765;DHT22;31474;45.332;10.230;2023-01-31T11:19:43;9.70;99.90
45765;DHT22;31474;45.332;10.230;2023-01-31T11:22:30;9.70;99.90
45765;DHT22;31474;45.332;10.230;2023-01-31T11:24:58;9.80;99.90
45765;DHT22;31474;45.332;10.230;2023-01-31T11:27:43;9.80;99.90
45765;DHT22;31474;45.332;10.230;2023-01-31T11:30:40;9.80;99.90
45765;DHT22;31474;45.332;10.230;2023-01-31T11:33:09;9.90;99.90
45765;DHT22;31474;45.332;10.230;2023-01-31T11:35:52;9.90;99.90
45765;DHT22;31474;45.332;10.230;2023-01-31T11:38:22;9.80;99.90
45765;DHT22;31474;45.332;10.230;2023-01-31T11:40:47;9.80;99.90
45765;DHT22;31474;45.332;10.230;2023-01-31T11:45:43;10.00;99.90
45765;DHT22;31474;45.332;10.230;2023-01-31T11:50:45;10.20;99.90
45765;DHT22;31474;45.332;10.230;2023-01-31T11:55:43;10.30;99.90
45765;DHT22;31474;45.332;10.230;2023-01-31T11:58:30;10.40;99.90
45765;DHT22;31474;45.332;10.230;2023-01-31T12:01:01;10.50;99.90
45765;DHT22;31474;45.332;10.230;2023-01-31T12:03:31;10.50;99.90
45765;DHT22;31474;45.332;10.230;2023-01-31T12:06:05;10.50;99.90
45765;DHT22;31474;45.332;10.230;2023-01-31T12:08:37;10.50;99.90
45765;DHT22;31474;45.332;10.230;2023-01-31T12:13:52;10.60;99.90
45765;DHT22;31474;45.332;10.230;2023-01-31T12:16:24;10.50;99.90
45765;DHT22;31474;45.332;10.230;2023-01-31T12:22:29;10.70;99.90
45765;DHT22;31474;45.332;10.230;2023-01-31T12:33:23;11.00;99.90
45765;DHT22;31474;45.332;10.230;2023-01-31T12:39:14;11.00;99.90
45765;DHT22;31474;45.332;10.230;2023-01-31T12:42:21;11.00;99.90
45765;DHT22;31474;45.332;10.230;2023-01-31T12:56:13;10.90;99.90
45765;DHT22;31474;45.332;10.230;2023-01-31T13:07:13;11.00;99.90
45765;DHT22;31474;45.332;10.230;2023-01-31T13:09:44;10.90;99.90
45765;DHT22;31474;45.332;10.230;2023-01-31T13:12:21;11.00;99.90
45765;DHT22;31474;45.332;10.230;2023-01-31T13:15:00;11.00;99.90
45765;DHT22;31474;45.332;10.230;2023-01-31T13:17:29;11.10;99.90
45765;DHT22;31474;45.332;10.230;2023-01-31T13:22:51;11.20;99.90
45765;DHT22;31474;45.332;10.230;2023-01-31T13:25:31;11.20;99.90
45765;DHT22;31474;45.332;10.230;2023-01-31T13:28:11;11.20;99.90
45765;DHT22;31474;45.332;10.230;2023-01-31T13:33:50;11.00;99.90
45765;DHT22;31474;45.332;10.230;2023-01-31T13:36:35;11.00;99.90
45765;DHT22;31474;45.332;10.230;2023-01-31T13:39:11;11.00;99.90
45765;DHT22;31474;45.332;10.230;2023-01-31T13:41:38;11.10;99.90
45765;DHT22;31474;45.332;10.230;2023-01-31T13:44:04;11.00;99.90
45765;DHT22;31474;45.332;10.230;2023-01-31T13:49:07;11.00;99.90
45765;DHT22;31474;45.332;10.230;2023-01-31T13:51:51;11.00;99.90
45765;DHT22;31474;45.332;10.230;2023-01-31T13:57:03;11.10;99.90
45765;DHT22;31474;45.332;10.230;2023-01-31T13:59:31;11.10;99.90
45765;DHT22;31474;45.332;10.230;2023-01-31T14:01:59;11.20;99.90
45765;DHT22;31474;45.332;10.230;2023-01-31T14:04:34;11.20;99.90
45765;DHT22;31474;45.332;10.230;2023-01-31T14:14:50;10.90;99.90
45765;DHT22;31474;45.332;10.230;2023-01-31T14:20:05;10.90;99.90
45765;DHT22;31474;45.332;10.230;2023-01-31T14:22:33;10.90;99.90
45765;DHT22;31474;45.332;10.230;2023-01-31T14:28:07;10.90;99.90
45765;DHT22;31474;45.332;10.230;2023-01-31T14:30:41;10.90;99.90
45765;DHT22;31474;45.332;10.230;2023-01-31T14:41:21;10.70;99.90
45765;DHT22;31474;45.332;10.230;2023-01-31T14:47:07;10.70;99.90
45765;DHT22;31474;45.332;10.230;2023-01-31T14:49:59;10.60;99.90
45765;DHT22;31474;45.332;10.230;2023-01-31T14:58:22;10.50;99.90
45765;DHT22;31474;45.332;10.230;2023-01-31T15:00:52;10.40;99.90
45765;DHT22;31474;45.332;10.230;2023-01-31T15:03:30;10.30;99.90
45765;DHT22;31474;45.332;10.230;2023-01-31T15:06:49;10.30;99.90
45765;DHT22;31474;45.332;10.230;2023-01-31T15:11:55;10.10;99.90
45765;DHT22;31474;45.332;10.230;2023-01-31T15:14:41;10.10;99.90
45765;DHT22;31474;45.332;10.230;2023-01-31T15:17:22;10.00;99.90
45765;DHT22;31474;45.332;10.230;2023-01-31T15:22:29;10.00;99.90
45765;DHT22;31474;45.332;10.230;2023-01-31T15:25:00;9.90;99.90
45765;DHT22;31474;45.332;10.230;2023-01-31T15:27:30;9.90;99.90
45765;DHT22;31474;45.332;10.230;2023-01-31T15:32:53;9.80;99.90
45765;DHT22;31474;45.332;10.230;2023-01-31T15:36:26;9.70;99.90
45765;DHT22;31474;45.332;10.230;2023-01-31T15:38:55;9.70;99.90
45765;DHT22;31474;45.332;10.230;2023-01-31T15:43:53;9.50;99.90
45765;DHT22;31474;45.332;10.230;2023-01-31T15:46:30;9.50;99.90
45765;DHT22;31474;45.332;10.230;2023-01-31T15:48:57;9.40;99.90
45765;DHT22;31474;45.332;10.230;2023-01-31T15:51:23;9.40;99.90
45765;DHT22;31474;45.332;10.230;2023-01-31T15:54:00;9.40;99.90
45765;DHT22;31474;45.332;10.230;2023-01-31T15:56:27;9.30;99.90
45765;DHT22;31474;45.332;10.230;2023-01-31T15:58:55;9.30;99.90
45765;DHT22;31474;45.332;10.230;2023-01-31T16:01:21;9.30;99.90
45765;DHT22;31474;45.332;10.230;2023-01-31T16:03:52;9.20;99.90
45765;DHT22;31474;45.332;10.230;2023-01-31T16:06:35;9.20;99.90
45765;DHT22;31474;45.332;10.230;2023-01-31T16:09:04;9.10;99.90
45765;DHT22;31474;45.332;10.230;2023-01-31T16:11:32;9.00;99.90
45765;DHT22;31474;45.332;10.230;2023-01-31T16:14:00;9.00;99.90
45765;DHT22;31474;45.332;10.230;2023-01-31T16:16:27;9.00;99.90
45765;DHT22;31474;45.332;10.230;2023-01-31T16:18:57;8.90;99.90
45765;DHT22;31474;45.332;10.230;2023-01-31T16:21:33;8.80;99.90
45765;DHT22;31474;45.332;10.230;2023-01-31T16:24:15;8.70;99.90
45765;DHT22;31474;45.332;10.230;2023-01-31T16:29:46;8.60;99.90
45765;DHT22;31474;45.332;10.230;2023-01-31T16:34:56;8.40;99.90
45765;DHT22;31474;45.332;10.230;2023-01-31T16:37:36;8.30;99.90
45765;DHT22;31474;45.332;10.230;2023-01-31T16:42:41;8.10;99.90
45765;DHT22;31474;45.332;10.230;2023-01-31T16:45:30;8.00;99.90
45765;DHT22;31474;45.332;10.230;2023-01-31T16:48:19;7.90;99.90
45765;DHT22;31474;45.332;10.230;2023-01-31T16:50:46;7.90;99.90
45765;DHT22;31474;45.332;10.230;2023-01-31T16:53:18;7.90;99.90
45765;DHT22;31474;45.332;10.230;2023-01-31T17:01:15;7.70;99.90
45765;DHT22;31474;45.332;10.230;2023-01-31T17:03:41;7.70;99.90
45765;DHT22;31474;45.332;10.230;2023-01-31T17:06:07;7.60;99.90
45765;DHT22;31474;45.332;10.230;2023-01-31T17:08:41;7.50;99.90
45765;DHT22;31474;45.332;10.230;2023-01-31T17:11:09;7.40;99.90
45765;DHT22;31474;45.332;10.230;2023-01-31T17:13:36;7.30;99.90
45765;DHT22;31474;45.332;10.230;2023-01-31T17:16:15;7.30;99.90
45765;DHT22;31474;45.332;10.230;2023-01-31T17:18:49;7.20;99.90
45765;DHT22;31474;45.332;10.230;2023-01-31T17:21:15;7.20;99.90
45765;DHT22;31474;45.332;10.230;2023-01-31T17:23:41;7.20;99.90
45765;DHT22;31474;45.332;10.230;2023-01-31T17:26:17;7.10;99.90
45765;DHT22;31474;45.332;10.230;2023-01-31T17:28:43;7.00;99.90
45765;DHT22;31474;45.332;10.230;2023-01-31T17:31:19;6.90;99.90
45765;DHT22;31474;45.332;10.230;2023-01-31T17:33:46;6.80;99.90
45765;DHT22;31474;45.332;10.230;2023-01-31T17:36:13;6.80;99.90
45765;DHT22;31474;45.332;10.230;2023-01-31T17:38:39;6.70;99.90
45765;DHT22;31474;45.332;10.230;2023-01-31T17:41:05;6.70;99.90
45765;DHT22;31474;45.332;10.230;2023-01-31T17:43:31;6.70;99.90
45765;DHT22;31474;45.332;10.230;2023-01-31T17:45:56;6.80;99.90
45765;DHT22;31474;45.332;10.230;2023-01-31T17:48:22;6.80;99.90
45765;DHT22;31474;45.332;10.230;2023-01-31T17:50:47;6.80;99.90
45765;DHT22;31474;45.332;10.230;2023-01-31T17:53:13;6.70;99.90
45765;DHT22;31474;45.332;10.230;2023-01-31T17:55:40;6.70;99.90
45765;DHT22;31474;45.332;10.230;2023-01-31T17:58:08;6.60;99.90
45765;DHT22;31474;45.332;10.230;2023-01-31T18:00:36;6.60;99.90
45765;DHT22;31474;45.332;10.230;2023-01-31T18:03:02;6.60;99.90
45765;DHT22;31474;45.332;10.230;2023-01-31T18:05:27;6.60;99.90
45765;DHT22;31474;45.332;10.230;2023-01-31T18:07:53;6.50;99.90
45765;DHT22;31474;45.332;10.230;2023-01-31T18:10:18;6.50;99.90
45765;DHT22;31474;45.332;10.230;2023-01-31T18:12:44;6.40;99.90
45765;DHT22;31474;45.332;10.230;2023-01-31T18:15:10;6.40;99.90
45765;DHT22;31474;45.332;10.230;2023-01-31T18:17:36;6.40;99.90
45765;DHT22;31474;45.332;10.230;2023-01-31T18:20:01;6.40;99.90
45765;DHT22;31474;45.332;10.230;2023-01-31T18:22:27;6.30;99.90
45765;DHT22;31474;45.332;10.230;2023-01-31T18:24:53;6.30;99.90
45765;DHT22;31474;45.332;10.230;2023-01-31T18:27:19;6.20;99.90
45765;DHT22;31474;45.332;10.230;2023-01-31T18:29:44;6.20;99.90
45765;DHT22;31474;45.332;10.230;2023-01-31T18:32:10;6.20;99.90
45765;DHT22;31474;45.332;10.230;2023-01-31T18:34:36;6.10;99.90
45765;DHT22;31474;45.332;10.230;2023-01-31T18:37:04;6.10;99.90
45765;DHT22;31474;45.332;10.230;2023-01-31T18:39:31;6.10;99.90
45765;DHT22;31474;45.332;10.230;2023-01-31T18:41:58;6.10;99.90
45765;DHT22;31474;45.332;10.230;2023-01-31T18:44:24;6.10;99.90
45765;DHT22;31474;45.332;10.230;2023-01-31T18:46:50;6.10;99.90